sensor_id;sensor_type;location;lat;lon;timestamp;P1;durP1;ratioP1;P2;durP2;ratioP2
8088;SDS011;57635;49.194;12.104;2023-02-18T00:00:08;3.77;;;3.57;;
8088;SDS011;57635;49.194;12.104;2023-02-18T00:02:38;2.97;;;2.77;;
8088;SDS011;57635;49.194;12.104;2023-02-18T00:05:05;3.30;;;3.00;;
8088;SDS011;57635;49.194;12.104;2023-02-18T00:07:34;3.20;;;3.03;;
8088;SDS011;57635;49.194;12.104;2023-02-18T00:10:02;3.40;;;3.20;;
8088;SDS011;57635;49.194;12.104;2023-02-18T00:12:30;3.77;;;3.57;;
8088;SDS011;57635;49.194;12.104;2023-02-18T00:14:59;3.40;;;3.10;;
8088;SDS011;57635;49.194;12.104;2023-02-18T00:17:28;3.80;;;3.60;;
8088;SDS011;57635;49.194;12.104;2023-02-18T00:19:56;3.60;;;3.40;;
8088;SDS011;57635;49.194;12.104;2023-02-18T00:22:23;3.40;;;3.13;;
8088;SDS011;57635;49.194;12.104;2023-02-18T00:24:51;2.93;;;2.80;;
8088;SDS011;57635;49.194;12.104;2023-02-18T00:27:19;3.33;;;3.13;;
8088;SDS011;57635;49.194;12.104;2023-02-18T00:29:46;3.30;;;3.20;;
8088;SDS011;57635;49.194;12.104;2023-02-18T00:32:14;3.40;;;3.20;;
8088;SDS011;57635;49.194;12.104;2023-02-18T00:34:43;3.33;;;3.13;;
8088;SDS011;57635;49.194;12.104;2023-02-18T00:37:11;3.33;;;3.13;;
8088;SDS011;57635;49.194;12.104;2023-02-18T00:39:38;3.00;;;2.80;;
8088;SDS011;57635;49.194;12.104;2023-02-18T00:42:06;2.73;;;2.63;;
8088;SDS011;57635;49.194;12.104;2023-02-18T00:44:33;3.00;;;2.80;;
8088;SDS011;57635;49.194;12.104;2023-02-18T00:47:01;3.10;;;2.97;;
8088;SDS011;57635;49.194;12.104;2023-02-18T00:49:29;2.80;;;2.63;;
8088;SDS011;57635;49.194;12.104;2023-02-18T00:51:58;3.23;;;2.93;;
8088;SDS011;57635;49.194;12.104;2023-02-18T00:54:25;2.93;;;2.83;;
8088;SDS011;57635;49.194;12.104;2023-02-18T00:56:53;2.67;;;2.50;;
8088;SDS011;57635;49.194;12.104;2023-02-18T00:59:21;2.90;;;2.80;;
8088;SDS011;57635;49.194;12.104;2023-02-18T01:01:48;2.27;;;2.17;;
8088;SDS011;57635;49.194;12.104;2023-02-18T01:04:16;3.20;;;3.00;;
8088;SDS011;57635;49.194;12.104;2023-02-18T01:06:44;2.70;;;2.60;;
8088;SDS011;57635;49.194;12.104;2023-02-18T01:09:13;2.90;;;2.80;;
8088;SDS011;57635;49.194;12.104;2023-02-18T01:11:40;2.67;;;2.57;;
8088;SDS011;57635;49.194;12.104;2023-02-18T01:14:08;2.87;;;2.77;;
8088;SDS011;57635;49.194;12.104;2023-02-18T01:16:36;2.80;;;2.70;;
8088;SDS011;57635;49.194;12.104;2023-02-18T01:19:03;4.27;;;2.77;;
8088;SDS011;57635;49.194;12.104;2023-02-18T01:21:31;2.83;;;2.73;;
8088;SDS011;57635;49.194;12.104;2023-02-18T01:23:58;2.77;;;2.57;;
8088;SDS011;57635;49.194;12.104;2023-02-18T01:26:27;2.57;;;2.47;;
8088;SDS011;57635;49.194;12.104;2023-02-18T01:28:55;3.20;;;3.00;;
8088;SDS011;57635;49.194;12.104;2023-02-18T01:31:23;2.93;;;2.83;;
8088;SDS011;57635;49.194;12.104;2023-02-18T01:33:50;3.10;;;2.90;;
8088;SDS011;57635;49.194;12.104;2023-02-18T01:36:18;2.40;;;2.30;;
8088;SDS011;57635;49.194;12.104;2023-02-18T01:38:46;2.50;;;2.30;;
8088;SDS011;57635;49.194;12.104;2023-02-18T01:41:13;2.30;;;2.20;;
8088;SDS011;57635;49.194;12.104;2023-02-18T01:43:42;2.83;;;2.60;;
8088;SDS011;57635;49.194;12.104;2023-02-18T01:46:14;2.00;;;1.90;;
8088;SDS011;57635;49.194;12.104;2023-02-18T01:48:44;3.07;;;2.87;;
8088;SDS011;57635;49.194;12.104;2023-02-18T01:51:16;2.53;;;2.43;;
8088;SDS011;57635;49.194;12.104;2023-02-18T01:53:46;2.63;;;2.33;;
8088;SDS011;57635;49.194;12.104;2023-02-18T01:56:19;2.00;;;1.90;;
8088;SDS011;57635;49.194;12.104;2023-02-18T01:58:52;2.80;;;2.60;;
8088;SDS011;57635;49.194;12.104;2023-02-18T02:01:21;2.20;;;2.10;;
8088;SDS011;57635;49.194;12.104;2023-02-18T02:03:49;2.70;;;2.50;;
8088;SDS011;57635;49.194;12.104;2023-02-18T02:06:19;2.80;;;2.70;;
8088;SDS011;57635;49.194;12.104;2023-02-18T02:08:48;2.30;;;2.20;;
8088;SDS011;57635;49.194;12.104;2023-02-18T02:11:20;2.67;;;2.10;;
8088;SDS011;57635;49.194;12.104;2023-02-18T02:13:56;2.10;;;2.00;;
8088;SDS011;57635;49.194;12.104;2023-02-18T02:16:35;2.20;;;2.10;;
8088;SDS011;57635;49.194;12.104;2023-02-18T02:19:09;2.40;;;2.30;;
8088;SDS011;57635;49.194;12.104;2023-02-18T02:21:57;2.40;;;2.30;;
8088;SDS011;57635;49.194;12.104;2023-02-18T02:24:45;2.00;;;1.90;;
8088;SDS011;57635;49.194;12.104;2023-02-18T02:27:20;1.70;;;1.70;;
8088;SDS011;57635;49.194;12.104;2023-02-18T02:30:17;1.63;;;1.53;;
8088;SDS011;57635;49.194;12.104;2023-02-18T02:33:11;2.00;;;1.90;;
8088;SDS011;57635;49.194;12.104;2023-02-18T02:36:00;2.20;;;2.10;;
8088;SDS011;57635;49.194;12.104;2023-02-18T02:38:31;1.97;;;1.87;;
8088;SDS011;57635;49.194;12.104;2023-02-18T02:41:06;2.10;;;2.00;;
8088;SDS011;57635;49.194;12.104;2023-02-18T02:43:41;2.00;;;1.90;;
8088;SDS011;57635;49.194;12.104;2023-02-18T02:46:15;2.20;;;2.00;;
8088;SDS011;57635;49.194;12.104;2023-02-18T02:48:45;1.90;;;1.80;;
8088;SDS011;57635;49.194;12.104;2023-02-18T02:51:19;1.90;;;1.80;;
8088;SDS011;57635;49.194;12.104;2023-02-18T02:53:50;2.43;;;2.23;;
8088;SDS011;57635;49.194;12.104;2023-02-18T02:56:19;2.97;;;2.30;;
8088;SDS011;57635;49.194;12.104;2023-02-18T02:58:49;2.30;;;2.20;;
8088;SDS011;57635;49.194;12.104;2023-02-18T03:01:26;2.57;;;2.47;;
8088;SDS011;57635;49.194;12.104;2023-02-18T03:07:03;2.30;;;2.20;;
8088;SDS011;57635;49.194;12.104;2023-02-18T03:09:40;2.10;;;2.00;;
8088;SDS011;57635;49.194;12.104;2023-02-18T03:12:17;2.27;;;2.17;;
8088;SDS011;57635;49.194;12.104;2023-02-18T03:14:52;2.00;;;1.90;;
8088;SDS011;57635;49.194;12.104;2023-02-18T03:17:24;2.43;;;2.23;;
8088;SDS011;57635;49.194;12.104;2023-02-18T03:19:55;2.00;;;2.00;;
8088;SDS011;57635;49.194;12.104;2023-02-18T03:22:26;2.70;;;2.50;;
8088;SDS011;57635;49.194;12.104;2023-02-18T03:24:56;1.90;;;1.80;;
8088;SDS011;57635;49.194;12.104;2023-02-18T03:27:26;2.27;;;2.17;;
8088;SDS011;57635;49.194;12.104;2023-02-18T03:29:56;2.67;;;2.50;;
8088;SDS011;57635;49.194;12.104;2023-02-18T03:32:25;2.50;;;2.40;;
8088;SDS011;57635;49.194;12.104;2023-02-18T03:34:57;3.30;;;3.10;;
8088;SDS011;57635;49.194;12.104;2023-02-18T03:37:29;2.50;;;2.30;;
8088;SDS011;57635;49.194;12.104;2023-02-18T03:39:58;2.30;;;2.20;;
8088;SDS011;57635;49.194;12.104;2023-02-18T03:42:27;2.13;;;2.03;;
8088;SDS011;57635;49.194;12.104;2023-02-18T03:44:56;3.30;;;2.40;;
8088;SDS011;57635;49.194;12.104;2023-02-18T03:47:24;2.07;;;1.97;;
8088;SDS011;57635;49.194;12.104;2023-02-18T03:49:52;2.20;;;2.10;;
8088;SDS011;57635;49.194;12.104;2023-02-18T03:52:19;2.27;;;2.17;;
8088;SDS011;57635;49.194;12.104;2023-02-18T03:54:48;2.27;;;2.17;;
8088;SDS011;57635;49.194;12.104;2023-02-18T03:57:17;2.43;;;2.33;;
8088;SDS011;57635;49.194;12.104;2023-02-18T03:59:45;2.23;;;2.13;;
8088;SDS011;57635;49.194;12.104;2023-02-18T04:02:12;2.27;;;2.17;;
8088;SDS011;57635;49.194;12.104;2023-02-18T04:04:40;2.10;;;2.00;;
8088;SDS011;57635;49.194;12.104;2023-02-18T04:07:07;1.97;;;1.87;;
8088;SDS011;57635;49.194;12.104;2023-02-18T04:09:35;2.10;;;2.00;;
8088;SDS011;57635;49.194;12.104;2023-02-18T04:12:04;2.03;;;1.97;;
8088;SDS011;57635;49.194;12.104;2023-02-18T04:14:33;2.37;;;2.20;;
8088;SDS011;57635;49.194;12.104;2023-02-18T04:17:00;2.00;;;1.90;;
8088;SDS011;57635;49.194;12.104;2023-02-18T04:19:28;2.47;;;2.10;;
8088;SDS011;57635;49.194;12.104;2023-02-18T04:21:55;2.13;;;2.03;;
8088;SDS011;57635;49.194;12.104;2023-02-18T04:24:23;2.03;;;1.93;;
8088;SDS011;57635;49.194;12.104;2023-02-18T04:26:51;1.97;;;1.87;;
8088;SDS011;57635;49.194;12.104;2023-02-18T04:29:20;2.13;;;2.03;;
8088;SDS011;57635;49.194;12.104;2023-02-18T04:31:48;2.00;;;1.90;;
8088;SDS011;57635;49.194;12.104;2023-02-18T04:34:16;1.73;;;1.63;;
8088;SDS011;57635;49.194;12.104;2023-02-18T04:36:43;3.10;;;2.90;;
8088;SDS011;57635;49.194;12.104;2023-02-18T04:39:11;2.10;;;2.00;;
8088;SDS011;57635;49.194;12.104;2023-02-18T04:41:39;2.07;;;1.93;;
8088;SDS011;57635;49.194;12.104;2023-02-18T04:44:06;1.80;;;1.80;;
8088;SDS011;57635;49.194;12.104;2023-02-18T04:46:35;2.10;;;2.00;;
8088;SDS011;57635;49.194;12.104;2023-02-18T04:49:03;2.00;;;1.90;;
8088;SDS011;57635;49.194;12.104;2023-02-18T04:51:30;2.20;;;2.10;;
8088;SDS011;57635;49.194;12.104;2023-02-18T04:53:58;2.60;;;2.50;;
8088;SDS011;57635;49.194;12.104;2023-02-18T04:56:25;1.93;;;1.77;;
8088;SDS011;57635;49.194;12.104;2023-02-18T04:58:53;2.43;;;2.23;;
8088;SDS011;57635;49.194;12.104;2023-02-18T05:01:21;1.97;;;1.87;;
8088;SDS011;57635;49.194;12.104;2023-02-18T05:03:50;2.30;;;2.20;;
8088;SDS011;57635;49.194;12.104;2023-02-18T05:06:18;2.33;;;2.23;;
8088;SDS011;57635;49.194;12.104;2023-02-18T05:08:45;2.47;;;2.37;;
8088;SDS011;57635;49.194;12.104;2023-02-18T05:11:13;2.43;;;2.30;;
8088;SDS011;57635;49.194;12.104;2023-02-18T05:13:40;2.23;;;2.13;;
8088;SDS011;57635;49.194;12.104;2023-02-18T05:16:08;2.13;;;2.03;;
8088;SDS011;57635;49.194;12.104;2023-02-18T05:18:36;2.87;;;2.67;;
8088;SDS011;57635;49.194;12.104;2023-02-18T05:21:05;2.40;;;2.30;;
8088;SDS011;57635;49.194;12.104;2023-02-18T05:23:33;2.60;;;2.07;;
8088;SDS011;57635;49.194;12.104;2023-02-18T05:26:02;2.40;;;2.30;;
8088;SDS011;57635;49.194;12.104;2023-02-18T05:28:30;2.80;;;2.70;;
8088;SDS011;57635;49.194;12.104;2023-02-18T05:30:58;2.50;;;2.40;;
8088;SDS011;57635;49.194;12.104;2023-02-18T05:33:25;2.70;;;2.60;;
8088;SDS011;57635;49.194;12.104;2023-02-18T05:35:53;2.83;;;2.63;;
8088;SDS011;57635;49.194;12.104;2023-02-18T05:38:22;2.53;;;2.43;;
8088;SDS011;57635;49.194;12.104;2023-02-18T05:40:49;2.70;;;2.60;;
8088;SDS011;57635;49.194;12.104;2023-02-18T05:43:17;3.93;;;3.70;;
8088;SDS011;57635;49.194;12.104;2023-02-18T05:45:45;3.47;;;3.27;;
8088;SDS011;57635;49.194;12.104;2023-02-18T05:48:12;2.90;;;2.80;;
8088;SDS011;57635;49.194;12.104;2023-02-18T05:50:40;3.40;;;3.20;;
8088;SDS011;57635;49.194;12.104;2023-02-18T05:53:08;3.60;;;3.40;;
8088;SDS011;57635;49.194;12.104;2023-02-18T05:55:37;3.83;;;3.03;;
8088;SDS011;57635;49.194;12.104;2023-02-18T05:58:04;3.67;;;3.47;;
8088;SDS011;57635;49.194;12.104;2023-02-18T06:00:32;3.80;;;3.50;;
8088;SDS011;57635;49.194;12.104;2023-02-18T06:02:59;4.00;;;3.60;;
8088;SDS011;57635;49.194;12.104;2023-02-18T06:05:28;4.03;;;3.73;;
8088;SDS011;57635;49.194;12.104;2023-02-18T06:07:55;5.03;;;3.90;;
8088;SDS011;57635;49.194;12.104;2023-02-18T06:10:23;3.63;;;3.43;;
8088;SDS011;57635;49.194;12.104;2023-02-18T06:12:52;4.30;;;4.00;;
8088;SDS011;57635;49.194;12.104;2023-02-18T06:15:19;3.97;;;3.77;;
8088;SDS011;57635;49.194;12.104;2023-02-18T06:17:47;4.37;;;4.07;;
8088;SDS011;57635;49.194;12.104;2023-02-18T06:20:14;4.00;;;3.70;;
8088;SDS011;57635;49.194;12.104;2023-02-18T06:22:42;4.53;;;4.13;;
8088;SDS011;57635;49.194;12.104;2023-02-18T06:25:09;3.97;;;3.70;;
8088;SDS011;57635;49.194;12.104;2023-02-18T06:27:37;4.47;;;4.20;;
8088;SDS011;57635;49.194;12.104;2023-02-18T06:30:07;4.00;;;3.80;;
8088;SDS011;57635;49.194;12.104;2023-02-18T06:32:35;5.03;;;4.57;;
8088;SDS011;57635;49.194;12.104;2023-02-18T06:35:03;5.13;;;4.73;;
8088;SDS011;57635;49.194;12.104;2023-02-18T06:37:31;4.87;;;4.47;;
8088;SDS011;57635;49.194;12.104;2023-02-18T06:39:58;5.03;;;4.73;;
8088;SDS011;57635;49.194;12.104;2023-02-18T06:42:26;5.23;;;4.80;;
8088;SDS011;57635;49.194;12.104;2023-02-18T06:44:54;5.20;;;4.80;;
8088;SDS011;57635;49.194;12.104;2023-02-18T06:47:23;5.47;;;5.07;;
8088;SDS011;57635;49.194;12.104;2023-02-18T06:49:50;5.07;;;4.70;;
8088;SDS011;57635;49.194;12.104;2023-02-18T06:52:18;5.77;;;5.37;;
8088;SDS011;57635;49.194;12.104;2023-02-18T06:54:46;5.23;;;4.93;;
8088;SDS011;57635;49.194;12.104;2023-02-18T06:57:13;4.83;;;4.53;;
8088;SDS011;57635;49.194;12.104;2023-02-18T06:59:41;5.60;;;5.10;;
8088;SDS011;57635;49.194;12.104;2023-02-18T07:02:09;4.57;;;4.17;;
8088;SDS011;57635;49.194;12.104;2023-02-18T07:04:38;6.80;;;6.27;;
8088;SDS011;57635;49.194;12.104;2023-02-18T07:07:06;5.80;;;5.30;;
8088;SDS011;57635;49.194;12.104;2023-02-18T07:09:33;5.70;;;5.20;;
8088;SDS011;57635;49.194;12.104;2023-02-18T07:12:01;4.70;;;4.40;;
8088;SDS011;57635;49.194;12.104;2023-02-18T07:14:29;5.47;;;5.07;;
8088;SDS011;57635;49.194;12.104;2023-02-18T07:16:56;4.97;;;4.67;;
8088;SDS011;57635;49.194;12.104;2023-02-18T07:19:24;5.13;;;4.67;;
8088;SDS011;57635;49.194;12.104;2023-02-18T07:21:53;4.93;;;4.47;;
8088;SDS011;57635;49.194;12.104;2023-02-18T07:24:23;5.10;;;4.80;;
8088;SDS011;57635;49.194;12.104;2023-02-18T07:26:51;5.40;;;4.90;;
8088;SDS011;57635;49.194;12.104;2023-02-18T07:29:18;5.27;;;4.97;;
8088;SDS011;57635;49.194;12.104;2023-02-18T07:31:46;5.20;;;4.57;;
8088;SDS011;57635;49.194;12.104;2023-02-18T07:34:13;5.30;;;4.90;;
8088;SDS011;57635;49.194;12.104;2023-02-18T07:36:41;6.33;;;5.30;;
8088;SDS011;57635;49.194;12.104;2023-02-18T07:39:10;5.33;;;4.93;;
8088;SDS011;57635;49.194;12.104;2023-02-18T07:41:38;9.13;;;7.73;;
8088;SDS011;57635;49.194;12.104;2023-02-18T07:44:06;5.80;;;5.30;;
8088;SDS011;57635;49.194;12.104;2023-02-18T07:46:33;5.33;;;4.83;;
8088;SDS011;57635;49.194;12.104;2023-02-18T07:49:01;5.10;;;4.80;;
8088;SDS011;57635;49.194;12.104;2023-02-18T07:51:29;5.30;;;4.90;;
8088;SDS011;57635;49.194;12.104;2023-02-18T07:53:57;5.80;;;5.37;;
8088;SDS011;57635;49.194;12.104;2023-02-18T07:56:25;5.80;;;5.40;;
8088;SDS011;57635;49.194;12.104;2023-02-18T07:58:53;5.63;;;5.13;;
8088;SDS011;57635;49.194;12.104;2023-02-18T08:01:21;5.10;;;4.80;;
8088;SDS011;57635;49.194;12.104;2023-02-18T08:03:48;5.93;;;5.53;;
8088;SDS011;57635;49.194;12.104;2023-02-18T08:06:19;5.60;;;5.10;;
8088;SDS011;57635;49.194;12.104;2023-02-18T08:08:48;5.13;;;4.83;;
8088;SDS011;57635;49.194;12.104;2023-02-18T08:11:16;5.33;;;4.93;;
8088;SDS011;57635;49.194;12.104;2023-02-18T08:13:46;6.57;;;6.07;;
8088;SDS011;57635;49.194;12.104;2023-02-18T08:16:14;5.60;;;5.17;;
8088;SDS011;57635;49.194;12.104;2023-02-18T08:18:42;5.80;;;5.40;;
8088;SDS011;57635;49.194;12.104;2023-02-18T08:21:10;6.07;;;5.67;;
8088;SDS011;57635;49.194;12.104;2023-02-18T08:23:37;5.27;;;4.97;;
8088;SDS011;57635;49.194;12.104;2023-02-18T08:26:05;5.30;;;4.90;;
8088;SDS011;57635;49.194;12.104;2023-02-18T08:28:33;5.63;;;5.20;;
8088;SDS011;57635;49.194;12.104;2023-02-18T08:31:02;6.10;;;5.53;;
8088;SDS011;57635;49.194;12.104;2023-02-18T08:33:30;5.97;;;5.57;;
8088;SDS011;57635;49.194;12.104;2023-02-18T08:35:58;5.50;;;5.10;;
8088;SDS011;57635;49.194;12.104;2023-02-18T08:38:25;5.50;;;5.10;;
8088;SDS011;57635;49.194;12.104;2023-02-18T08:40:59;5.43;;;5.13;;
8088;SDS011;57635;49.194;12.104;2023-02-18T08:43:27;5.60;;;5.20;;
8088;SDS011;57635;49.194;12.104;2023-02-18T08:45:55;5.17;;;4.77;;
8088;SDS011;57635;49.194;12.104;2023-02-18T08:48:25;4.47;;;4.17;;
8088;SDS011;57635;49.194;12.104;2023-02-18T08:50:54;5.13;;;4.83;;
8088;SDS011;57635;49.194;12.104;2023-02-18T08:53:22;5.10;;;4.80;;
8088;SDS011;57635;49.194;12.104;2023-02-18T08:55:49;4.90;;;4.60;;
8088;SDS011;57635;49.194;12.104;2023-02-18T08:58:17;4.40;;;4.10;;
8088;SDS011;57635;49.194;12.104;2023-02-18T09:00:45;4.60;;;4.30;;
8088;SDS011;57635;49.194;12.104;2023-02-18T09:03:13;4.63;;;4.23;;
8088;SDS011;57635;49.194;12.104;2023-02-18T09:05:42;3.97;;;3.70;;
8088;SDS011;57635;49.194;12.104;2023-02-18T09:08:10;4.47;;;4.07;;
8088;SDS011;57635;49.194;12.104;2023-02-18T09:10:37;3.90;;;3.53;;
8088;SDS011;57635;49.194;12.104;2023-02-18T09:13:05;4.27;;;4.07;;
8088;SDS011;57635;49.194;12.104;2023-02-18T09:15:33;4.27;;;3.97;;
8088;SDS011;57635;49.194;12.104;2023-02-18T09:18:01;4.17;;;3.87;;
8088;SDS011;57635;49.194;12.104;2023-02-18T09:20:28;3.37;;;3.17;;
8088;SDS011;57635;49.194;12.104;2023-02-18T09:22:57;3.17;;;2.97;;
8088;SDS011;57635;49.194;12.104;2023-02-18T09:25:26;3.63;;;3.43;;
8088;SDS011;57635;49.194;12.104;2023-02-18T09:27:53;3.40;;;3.17;;
8088;SDS011;57635;49.194;12.104;2023-02-18T09:30:21;3.60;;;3.30;;
8088;SDS011;57635;49.194;12.104;2023-02-18T09:32:49;2.80;;;2.60;;
8088;SDS011;57635;49.194;12.104;2023-02-18T09:35:16;4.40;;;4.10;;
8088;SDS011;57635;49.194;12.104;2023-02-18T09:37:44;3.50;;;3.30;;
8088;SDS011;57635;49.194;12.104;2023-02-18T09:40:13;3.30;;;3.10;;
8088;SDS011;57635;49.194;12.104;2023-02-18T09:42:50;3.57;;;3.37;;
8088;SDS011;57635;49.194;12.104;2023-02-18T09:45:18;2.97;;;2.73;;
8088;SDS011;57635;49.194;12.104;2023-02-18T09:47:47;3.13;;;2.90;;
8088;SDS011;57635;49.194;12.104;2023-02-18T09:50:17;2.93;;;2.77;;
8088;SDS011;57635;49.194;12.104;2023-02-18T09:52:46;3.20;;;3.00;;
8088;SDS011;57635;49.194;12.104;2023-02-18T09:55:17;3.43;;;3.23;;
8088;SDS011;57635;49.194;12.104;2023-02-18T09:57:47;2.70;;;2.60;;
8088;SDS011;57635;49.194;12.104;2023-02-18T10:00:18;2.90;;;2.60;;
8088;SDS011;57635;49.194;12.104;2023-02-18T10:02:49;3.57;;;3.33;;
8088;SDS011;57635;49.194;12.104;2023-02-18T10:05:21;2.83;;;2.70;;
8088;SDS011;57635;49.194;12.104;2023-02-18T10:07:50;2.33;;;2.23;;
8088;SDS011;57635;49.194;12.104;2023-02-18T10:10:24;2.53;;;2.43;;
8088;SDS011;57635;49.194;12.104;2023-02-18T10:12:59;3.33;;;3.13;;
8088;SDS011;57635;49.194;12.104;2023-02-18T10:15:27;2.70;;;2.60;;
8088;SDS011;57635;49.194;12.104;2023-02-18T10:17:56;2.97;;;2.87;;
8088;SDS011;57635;49.194;12.104;2023-02-18T10:20:27;2.70;;;2.60;;
8088;SDS011;57635;49.194;12.104;2023-02-18T10:22:56;2.60;;;2.50;;
8088;SDS011;57635;49.194;12.104;2023-02-18T10:25:26;3.17;;;2.80;;
8088;SDS011;57635;49.194;12.104;2023-02-18T10:27:54;3.40;;;3.20;;
8088;SDS011;57635;49.194;12.104;2023-02-18T10:30:24;2.60;;;2.50;;
8088;SDS011;57635;49.194;12.104;2023-02-18T10:32:59;2.60;;;2.50;;
8088;SDS011;57635;49.194;12.104;2023-02-18T10:35:44;2.70;;;2.50;;
8088;SDS011;57635;49.194;12.104;2023-02-18T10:38:16;2.80;;;2.37;;
8088;SDS011;57635;49.194;12.104;2023-02-18T10:40:51;2.40;;;2.20;;
8088;SDS011;57635;49.194;12.104;2023-02-18T10:43:26;2.60;;;2.50;;
8088;SDS011;57635;49.194;12.104;2023-02-18T10:46:01;3.17;;;2.97;;
8088;SDS011;57635;49.194;12.104;2023-02-18T10:48:41;2.60;;;2.40;;
8088;SDS011;57635;49.194;12.104;2023-02-18T10:51:15;2.73;;;2.63;;
8088;SDS011;57635;49.194;12.104;2023-02-18T10:53:45;2.63;;;2.40;;
8088;SDS011;57635;49.194;12.104;2023-02-18T10:59:05;2.50;;;2.30;;
8088;SDS011;57635;49.194;12.104;2023-02-18T11:01:37;2.73;;;2.53;;
8088;SDS011;57635;49.194;12.104;2023-02-18T11:04:11;2.37;;;2.17;;
8088;SDS011;57635;49.194;12.104;2023-02-18T11:06:40;2.53;;;2.43;;
8088;SDS011;57635;49.194;12.104;2023-02-18T11:09:20;2.83;;;2.63;;
8088;SDS011;57635;49.194;12.104;2023-02-18T11:11:58;2.67;;;2.57;;
8088;SDS011;57635;49.194;12.104;2023-02-18T11:14:38;2.37;;;2.27;;
8088;SDS011;57635;49.194;12.104;2023-02-18T11:17:09;3.00;;;2.80;;
8088;SDS011;57635;49.194;12.104;2023-02-18T11:19:45;3.03;;;2.83;;
8088;SDS011;57635;49.194;12.104;2023-02-18T11:22:20;3.70;;;2.17;;
8088;SDS011;57635;49.194;12.104;2023-02-18T11:24:52;2.47;;;2.37;;
8088;SDS011;57635;49.194;12.104;2023-02-18T11:27:23;2.53;;;2.43;;
8088;SDS011;57635;49.194;12.104;2023-02-18T11:29:53;2.83;;;2.70;;
8088;SDS011;57635;49.194;12.104;2023-02-18T11:32:25;2.73;;;2.53;;
8088;SDS011;57635;49.194;12.104;2023-02-18T11:34:54;2.47;;;2.37;;
8088;SDS011;57635;49.194;12.104;2023-02-18T11:37:22;2.87;;;2.67;;
8088;SDS011;57635;49.194;12.104;2023-02-18T11:39:50;2.23;;;2.13;;
8088;SDS011;57635;49.194;12.104;2023-02-18T11:42:20;2.53;;;2.42;;
8088;SDS011;57635;49.194;12.104;2023-02-18T11:44:51;2.60;;;2.50;;
8088;SDS011;57635;49.194;12.104;2023-02-18T11:47:21;2.10;;;2.00;;
8088;SDS011;57635;49.194;12.104;2023-02-18T11:52:45;2.67;;;2.53;;
8088;SDS011;57635;49.194;12.104;2023-02-18T11:55:14;2.87;;;2.70;;
8088;SDS011;57635;49.194;12.104;2023-02-18T11:57:53;2.63;;;2.53;;
8088;SDS011;57635;49.194;12.104;2023-02-18T12:00:24;2.90;;;2.80;;
8088;SDS011;57635;49.194;12.104;2023-02-18T12:03:02;2.17;;;2.03;;
8088;SDS011;57635;49.194;12.104;2023-02-18T12:05:33;3.10;;;2.53;;
8088;SDS011;57635;49.194;12.104;2023-02-18T12:08:05;2.37;;;2.27;;
8088;SDS011;57635;49.194;12.104;2023-02-18T12:10:37;2.33;;;2.23;;
8088;SDS011;57635;49.194;12.104;2023-02-18T12:13:14;2.60;;;2.47;;
8088;SDS011;57635;49.194;12.104;2023-02-18T12:15:48;2.20;;;2.10;;
8088;SDS011;57635;49.194;12.104;2023-02-18T12:18:31;2.40;;;2.20;;
8088;SDS011;57635;49.194;12.104;2023-02-18T12:21:19;2.50;;;2.33;;
8088;SDS011;57635;49.194;12.104;2023-02-18T12:23:55;2.40;;;2.20;;
8088;SDS011;57635;49.194;12.104;2023-02-18T12:26:27;2.30;;;2.20;;
8088;SDS011;57635;49.194;12.104;2023-02-18T12:29:04;2.50;;;2.40;;
8088;SDS011;57635;49.194;12.104;2023-02-18T12:31:45;2.40;;;2.30;;
8088;SDS011;57635;49.194;12.104;2023-02-18T12:34:31;2.20;;;1.90;;
8088;SDS011;57635;49.194;12.104;2023-02-18T12:37:10;2.00;;;1.90;;
8088;SDS011;57635;49.194;12.104;2023-02-18T12:39:58;1.77;;;1.67;;
8088;SDS011;57635;49.194;12.104;2023-02-18T12:42:34;2.40;;;2.30;;
8088;SDS011;57635;49.194;12.104;2023-02-18T12:45:19;2.63;;;2.03;;
8088;SDS011;57635;49.194;12.104;2023-02-18T12:48:05;1.97;;;1.87;;
8088;SDS011;57635;49.194;12.104;2023-02-18T12:50:48;2.40;;;2.30;;
8088;SDS011;57635;49.194;12.104;2023-02-18T12:53:29;2.10;;;2.00;;
8088;SDS011;57635;49.194;12.104;2023-02-18T12:56:09;2.03;;;1.93;;
8088;SDS011;57635;49.194;12.104;2023-02-18T12:58:49;2.00;;;1.90;;
8088;SDS011;57635;49.194;12.104;2023-02-18T13:01:29;2.33;;;2.23;;
8088;SDS011;57635;49.194;12.104;2023-02-18T13:04:06;2.30;;;2.20;;
8088;SDS011;57635;49.194;12.104;2023-02-18T13:06:47;1.80;;;1.77;;
8088;SDS011;57635;49.194;12.104;2023-02-18T13:09:27;1.90;;;1.80;;
8088;SDS011;57635;49.194;12.104;2023-02-18T13:12:02;2.27;;;2.03;;
8088;SDS011;57635;49.194;12.104;2023-02-18T13:14:35;1.90;;;1.80;;
8088;SDS011;57635;49.194;12.104;2023-02-18T13:17:09;2.40;;;2.30;;
8088;SDS011;57635;49.194;12.104;2023-02-18T13:19:40;1.97;;;1.87;;
8088;SDS011;57635;49.194;12.104;2023-02-18T13:22:11;2.10;;;1.97;;
8088;SDS011;57635;49.194;12.104;2023-02-18T13:24:42;2.37;;;2.13;;
8088;SDS011;57635;49.194;12.104;2023-02-18T13:27:13;2.10;;;2.00;;
8088;SDS011;57635;49.194;12.104;2023-02-18T13:29:45;2.00;;;1.90;;
8088;SDS011;57635;49.194;12.104;2023-02-18T13:32:19;2.23;;;2.13;;
8088;SDS011;57635;49.194;12.104;2023-02-18T13:34:52;2.07;;;1.97;;
8088;SDS011;57635;49.194;12.104;2023-02-18T13:37:25;2.33;;;2.23;;
8088;SDS011;57635;49.194;12.104;2023-02-18T13:39:57;1.93;;;1.83;;
8088;SDS011;57635;49.194;12.104;2023-02-18T13:42:35;2.10;;;1.87;;
8088;SDS011;57635;49.194;12.104;2023-02-18T13:47:54;2.93;;;1.90;;
8088;SDS011;57635;49.194;12.104;2023-02-18T13:50:28;1.90;;;1.80;;
8088;SDS011;57635;49.194;12.104;2023-02-18T13:55:45;2.50;;;2.30;;
8088;SDS011;57635;49.194;12.104;2023-02-18T13:58:18;2.23;;;2.10;;
8088;SDS011;57635;49.194;12.104;2023-02-18T14:00:47;2.17;;;2.07;;
8088;SDS011;57635;49.194;12.104;2023-02-18T14:03:30;2.10;;;2.00;;
8088;SDS011;57635;49.194;12.104;2023-02-18T14:06:03;2.00;;;1.87;;
8088;SDS011;57635;49.194;12.104;2023-02-18T14:08:40;2.40;;;2.30;;
8088;SDS011;57635;49.194;12.104;2023-02-18T14:11:24;2.40;;;2.17;;
8088;SDS011;57635;49.194;12.104;2023-02-18T14:26:22;2.33;;;2.20;;
8088;SDS011;57635;49.194;12.104;2023-02-18T14:28:52;2.63;;;1.80;;
8088;SDS011;57635;49.194;12.104;2023-02-18T14:31:26;2.40;;;2.20;;
8088;SDS011;57635;49.194;12.104;2023-02-18T14:34:12;2.60;;;2.50;;
8088;SDS011;57635;49.194;12.104;2023-02-18T14:36:58;2.70;;;2.60;;
8088;SDS011;57635;49.194;12.104;2023-02-18T14:39:37;2.30;;;2.20;;
8088;SDS011;57635;49.194;12.104;2023-02-18T14:42:15;2.13;;;2.03;;
8088;SDS011;57635;49.194;12.104;2023-02-18T14:45:04;2.20;;;2.10;;
8088;SDS011;57635;49.194;12.104;2023-02-18T14:47:41;2.30;;;2.10;;
8088;SDS011;57635;49.194;12.104;2023-02-18T14:50:18;2.70;;;2.37;;
8088;SDS011;57635;49.194;12.104;2023-02-18T14:52:47;2.17;;;2.07;;
8088;SDS011;57635;49.194;12.104;2023-02-18T14:55:17;2.30;;;2.13;;
8088;SDS011;57635;49.194;12.104;2023-02-18T14:57:49;2.87;;;2.67;;
8088;SDS011;57635;49.194;12.104;2023-02-18T15:00:19;2.33;;;2.23;;
8088;SDS011;57635;49.194;12.104;2023-02-18T15:02:48;2.27;;;2.13;;
8088;SDS011;57635;49.194;12.104;2023-02-18T15:05:18;2.40;;;2.30;;
8088;SDS011;57635;49.194;12.104;2023-02-18T15:07:53;2.10;;;2.00;;
8088;SDS011;57635;49.194;12.104;2023-02-18T15:10:24;2.23;;;2.13;;
8088;SDS011;57635;49.194;12.104;2023-02-18T15:12:58;2.37;;;2.20;;
8088;SDS011;57635;49.194;12.104;2023-02-18T15:15:27;4.10;;;3.80;;
8088;SDS011;57635;49.194;12.104;2023-02-18T15:17:54;2.90;;;2.70;;
8088;SDS011;57635;49.194;12.104;2023-02-18T15:20:22;2.07;;;1.97;;
8088;SDS011;57635;49.194;12.104;2023-02-18T15:22:50;2.63;;;2.53;;
8088;SDS011;57635;49.194;12.104;2023-02-18T15:25:17;3.80;;;3.50;;
8088;SDS011;57635;49.194;12.104;2023-02-18T15:27:45;2.20;;;2.10;;
8088;SDS011;57635;49.194;12.104;2023-02-18T15:30:19;2.63;;;2.43;;
8088;SDS011;57635;49.194;12.104;2023-02-18T15:32:51;7.90;;;7.10;;
8088;SDS011;57635;49.194;12.104;2023-02-18T15:35:21;3.00;;;2.80;;